Time;durP1;ratioP1;P1;durP2;ratioP2;P2;SDS_P1;SDS_P2;PMS_P1;PMS_P2;Temp;Humidity;BMP_temperature;BMP_pressure;BME280_temperature;BME280_humidity;BME280_pressure;Samples;Min_cycle;Max_cycle;Signal;HPM_P1;HPM_P2
2022/03/07 00:02:03;;;;;;;13.23;8.67;;;-1.30;99.90;;;;;;8351137;28;20695;-65
2022/03/07 00:06:05;;;;;;;12.27;7.63;;;-1.30;99.90;;;;;;8350620;28;20294;-65
2022/03/07 00:10:06;;;;;;;13.10;8.50;;;-1.30;99.90;;;;;;8347126;28;20294;-66
2022/03/07 00:14:07;;;;;;;12.57;7.93;;;-1.30;99.90;;;;;;8334503;28;20202;-64
2022/03/07 00:18:08;;;;;;;13.83;8.13;;;-1.30;99.90;;;;;;8329109;28;20271;-64
2022/03/07 00:22:09;;;;;;;14.20;7.57;;;-1.30;99.90;;;;;;8333561;28;20249;-64
2022/03/07 00:26:09;;;;;;;12.43;7.87;;;-1.30;99.90;;;;;;8328555;28;20224;-64
2022/03/07 00:30:11;;;;;;;17.07;9.30;;;-1.30;1.00;;;;;;8331508;28;20214;-64
2022/03/07 00:34:12;;;;;;;14.00;7.93;;;-1.30;99.90;;;;;;8333195;28;20201;-65
2022/03/07 00:38:14;;;;;;;11.47;7.37;;;-1.30;99.90;;;;;;8352610;28;20217;-65
2022/03/07 00:42:15;;;;;;;12.33;6.97;;;-1.30;99.90;;;;;;8335842;28;20271;-65
2022/03/07 00:46:16;;;;;;;11.23;7.47;;;-1.30;1.00;;;;;;8333438;28;20319;-65
2022/03/07 00:50:16;;;;;;;14.30;8.43;;;-1.30;1.00;;;;;;8351267;28;20293;-65
2022/03/07 00:54:17;;;;;;;18.10;8.50;;;-1.30;1.00;;;;;;8354218;28;20228;-65
2022/03/07 00:58:18;;;;;;;14.80;7.63;;;-1.30;1.00;;;;;;8352504;28;20289;-65
2022/03/07 01:02:20;;;;;;;11.27;7.10;;;-1.30;1.00;;;;;;8334029;28;20221;-65
2022/03/07 01:06:22;;;;;;;10.90;6.30;;;-1.30;1.00;;;;;;8329285;28;20216;-65
2022/03/07 01:10:22;;;;;;;14.83;8.33;;;-1.30;1.00;;;;;;8334119;28;20217;-65
2022/03/07 01:14:23;;;;;;;12.90;7.60;;;-1.30;1.00;;;;;;8331472;28;20210;-65
2022/03/07 01:18:24;;;;;;;12.03;7.63;;;-1.30;1.00;;;;;;8321563;28;20210;-65
2022/03/07 01:22:25;;;;;;;11.87;7.13;;;-1.30;1.00;;;;;;8333592;28;20311;-65
2022/03/07 01:26:26;;;;;;;9.80;6.97;;;-1.30;1.00;;;;;;8332394;28;20235;-66
2022/03/07 01:30:26;;;;;;;15.00;7.33;;;-1.30;1.00;;;;;;8315250;28;20289;-66
2022/03/07 01:34:27;;;;;;;15.40;7.60;;;-1.40;1.00;;;;;;8327171;28;20221;-66
2022/03/07 01:38:28;;;;;;;11.77;7.07;;;-1.40;1.00;;;;;;8352294;28;20209;-66
2022/03/07 01:42:29;;;;;;;12.07;6.77;;;-1.30;1.00;;;;;;8350699;28;20225;-66
2022/03/07 01:46:33;;;;;;;10.60;6.70;;;-1.40;65.10;;;;;;8344802;28;20270;-66
2022/03/07 01:50:34;;;;;;;14.13;7.07;;;-1.40;69.50;;;;;;8344290;28;20201;-66
2022/03/07 01:54:34;;;;;;;10.80;6.43;;;-1.40;25.00;;;;;;8335271;28;20213;-66
2022/03/07 01:58:35;;;;;;;15.20;7.07;;;-1.40;99.90;;;;;;8331605;28;20213;-66
2022/03/07 02:02:36;;;;;;;11.07;6.93;;;-1.40;99.90;;;;;;8325786;28;20222;-65
2022/03/07 02:06:38;;;;;;;13.67;6.73;;;-1.40;99.90;;;;;;8331729;28;20258;-66
2022/03/07 02:10:39;;;;;;;9.53;6.23;;;-1.40;99.90;;;;;;8331254;28;20216;-66
2022/03/07 02:14:40;;;;;;;12.70;6.03;;;-1.40;99.90;;;;;;8345708;28;20213;-66
2022/03/07 02:18:41;;;;;;;12.00;7.13;;;-1.40;99.90;;;;;;8332789;28;20240;-66
2022/03/07 02:22:44;;;;;;;12.73;7.03;;;-1.40;99.90;;;;;;8326651;28;20231;-66
2022/03/07 02:26:58;;;;;;;11.30;6.20;;;-1.40;99.90;;;;;;8328091;28;20216;-66
2022/03/07 02:30:59;;;;;;;9.37;6.07;;;-1.40;99.90;;;;;;8349627;28;20236;-66
2022/03/07 02:35:00;;;;;;;10.70;5.77;;;-1.40;99.90;;;;;;8332150;28;20206;-66
2022/03/07 02:39:01;;;;;;;12.43;6.53;;;-1.30;1.00;;;;;;8332147;28;20221;-65
2022/03/07 02:43:01;;;;;;;10.17;6.47;;;-1.30;1.00;;;;;;8331419;28;20245;-66
2022/03/07 02:47:02;;;;;;;9.60;5.80;;;-1.40;99.90;;;;;;8334911;28;20206;-66
2022/03/07 02:51:04;;;;;;;10.97;6.33;;;-1.30;99.90;;;;;;8351464;28;20288;-65
2022/03/07 02:55:05;;;;;;;12.43;7.20;;;-1.30;1.00;;;;;;8351306;28;20217;-65
2022/03/07 02:59:06;;;;;;;10.97;5.73;;;-1.30;1.00;;;;;;8352250;28;20213;-62
2022/03/07 03:03:06;;;;;;;10.07;6.20;;;-1.30;1.00;;;;;;8349919;28;20237;-65
2022/03/07 03:07:07;;;;;;;14.60;5.90;;;-1.30;99.90;;;;;;8352059;28;20206;-65
2022/03/07 03:11:08;;;;;;;14.20;5.90;;;-1.30;99.90;;;;;;8333071;28;20213;-66
2022/03/07 03:15:10;;;;;;;11.20;5.93;;;-1.30;99.90;;;;;;8336843;28;20218;-66
2022/03/07 03:19:10;;;;;;;12.13;5.63;;;-1.20;99.90;;;;;;8330441;28;20254;-66
2022/03/07 03:23:11;;;;;;;12.00;5.60;;;-1.30;99.90;;;;;;8332824;28;20230;-66
2022/03/07 03:27:12;;;;;;;9.83;6.07;;;-1.20;99.90;;;;;;8335271;28;20206;-65
2022/03/07 03:31:13;;;;;;;6.87;5.27;;;-1.20;1.00;;;;;;8355436;28;20213;-65
2022/03/07 03:35:14;;;;;;;9.40;5.47;;;-1.20;1.00;;;;;;8330798;28;20309;-66
2022/03/07 03:39:15;;;;;;;10.23;5.60;;;-1.20;1.00;;;;;;8351830;28;20212;-66
2022/03/07 03:43:16;;;;;;;9.20;5.80;;;-1.20;84.50;;;;;;8324564;28;20337;-66
2022/03/07 03:47:17;;;;;;;10.63;5.73;;;-1.20;99.90;;;;;;8354678;28;20216;-66
2022/03/07 03:51:17;;;;;;;7.60;5.20;;;-1.20;99.90;;;;;;8334995;28;20209;-66
2022/03/07 03:55:18;;;;;;;8.07;5.30;;;-1.10;99.90;;;;;;8349053;28;20228;-66
2022/03/07 03:59:19;;;;;;;8.33;5.33;;;-1.10;99.90;;;;;;8348556;28;20289;-66
2022/03/07 04:03:20;;;;;;;7.43;5.00;;;-1.10;99.90;;;;;;8335141;28;20226;-65
2022/03/07 04:07:22;;;;;;;11.17;5.37;;;-1.10;99.90;;;;;;8351817;28;20206;-64
2022/03/07 04:11:22;;;;;;;7.50;4.83;;;-1.00;99.90;;;;;;8334502;28;20234;-64
2022/03/07 04:15:25;;;;;;;9.90;5.50;;;-1.10;1.00;;;;;;8350794;28;20202;-66
2022/03/07 04:19:26;;;;;;;8.47;5.00;;;-1.00;1.00;;;;;;8326079;28;20210;-66
2022/03/07 04:23:27;;;;;;;7.63;5.43;;;-1.00;75.20;;;;;;8351173;28;20252;-66
2022/03/07 04:27:28;;;;;;;10.33;4.80;;;-1.00;1.00;;;;;;8349102;28;20205;-66
2022/03/07 04:31:29;;;;;;;8.63;5.30;;;-1.00;95.50;;;;;;8324167;28;20210;-65
2022/03/07 04:35:30;;;;;;;8.63;4.67;;;-1.00;99.90;;;;;;8334016;28;20209;-66
2022/03/07 04:39:30;;;;;;;13.00;5.83;;;-1.00;63.80;;;;;;8332854;28;20320;-66
2022/03/07 04:43:32;;;;;;;11.30;5.27;;;-1.00;56.90;;;;;;8326740;28;20248;-65
2022/03/07 04:47:33;;;;;;;9.80;5.67;;;-1.00;92.40;;;;;;8350070;28;20201;-66
2022/03/07 04:51:34;;;;;;;8.83;4.67;;;-1.00;99.90;;;;;;8323684;28;20198;-66
2022/03/07 04:55:35;;;;;;;8.60;5.33;;;-1.00;99.90;;;;;;8330991;28;20213;-64
2022/03/07 04:59:36;;;;;;;9.47;5.13;;;-1.00;99.90;;;;;;8349526;28;20205;-63
2022/03/07 05:03:37;;;;;;;6.73;4.53;;;-1.00;99.90;;;;;;8326134;28;20225;-64
2022/03/07 05:07:37;;;;;;;8.57;5.03;;;-1.00;99.90;;;;;;8326330;28;20209;-63
2022/03/07 05:11:38;;;;;;;10.07;5.43;;;-1.00;99.90;;;;;;8343439;28;20213;-64
2022/03/07 05:15:39;;;;;;;10.00;4.83;;;-1.00;99.90;;;;;;8331923;28;20217;-64
2022/03/07 05:19:40;;;;;;;10.80;5.10;;;-1.00;99.90;;;;;;8332347;28;20209;-64
2022/03/07 05:23:41;;;;;;;9.93;5.87;;;-1.00;1.00;;;;;;8329691;28;20233;-64
2022/03/07 05:27:42;;;;;;;7.27;4.63;;;-1.00;1.00;;;;;;8330634;28;20231;-66
2022/03/07 05:31:43;;;;;;;7.30;4.87;;;-1.00;1.00;;;;;;8341181;28;20224;-66
2022/03/07 05:35:43;;;;;;;9.80;5.50;;;-1.00;99.90;;;;;;8349701;28;20205;-65
2022/03/07 05:39:44;;;;;;;8.10;4.60;;;-1.00;1.00;;;;;;8351271;28;20251;-65
2022/03/07 05:43:45;;;;;;;8.17;4.90;;;-1.00;1.00;;;;;;8349854;28;20251;-66
2022/03/07 05:47:46;;;;;;;7.80;4.47;;;-1.00;1.00;;;;;;8350182;28;20311;-66
2022/03/07 05:51:47;;;;;;;9.07;4.50;;;-0.90;1.00;;;;;;8327553;28;20213;-65
2022/03/07 05:55:49;;;;;;;8.83;4.90;;;-0.90;99.90;;;;;;8344255;28;20248;-63
2022/03/07 05:59:50;;;;;;;11.17;4.60;;;-0.90;99.90;;;;;;8343639;28;20220;-62
2022/03/07 06:03:50;;;;;;;8.70;5.17;;;-0.90;1.00;;;;;;8348789;28;20248;-65
2022/03/07 06:07:51;;;;;;;9.13;4.83;;;-0.90;99.90;;;;;;8330798;28;20201;-63
2022/03/07 06:11:52;;;;;;;9.43;4.60;;;-0.80;99.90;;;;;;8330164;28;20209;-63
2022/03/07 06:15:53;;;;;;;7.00;4.97;;;-0.80;99.90;;;;;;8347770;28;20201;-64
2022/03/07 06:19:54;;;;;;;7.40;4.67;;;-0.80;99.90;;;;;;8338660;28;20216;-65
2022/03/07 06:23:54;;;;;;;8.00;4.47;;;-0.70;99.90;;;;;;8355661;28;20304;-63
2022/03/07 06:27:55;;;;;;;6.97;4.40;;;-0.70;99.90;;;;;;8347376;28;20201;-64
2022/03/07 06:31:56;;;;;;;9.37;4.80;;;-0.70;99.90;;;;;;8336922;28;20208;-65
2022/03/07 06:35:57;;;;;;;7.77;4.67;;;-0.60;93.60;;;;;;8349375;28;20350;-64
2022/03/07 06:39:58;;;;;;;7.40;4.13;;;-0.60;99.90;;;;;;8345864;28;20209;-64
2022/03/07 06:44:00;;;;;;;7.80;4.43;;;-0.60;1.00;;;;;;8353646;28;20251;-65
2022/03/07 06:48:01;;;;;;;6.93;4.73;;;-0.60;1.00;;;;;;8332619;28;20211;-64
2022/03/07 06:52:03;;;;;;;8.37;4.97;;;-0.70;99.90;;;;;;8337017;28;20219;-65
2022/03/07 06:56:04;;;;;;;7.37;4.57;;;-0.60;99.90;;;;;;8337022;28;20355;-66
2022/03/07 07:00:08;;;;;;;7.53;5.07;;;-0.60;99.90;;;;;;8335354;28;20221;-65
2022/03/07 07:04:09;;;;;;;7.20;4.83;;;-0.50;1.00;;;;;;8336692;28;20222;-64
2022/03/07 07:08:11;;;;;;;8.90;5.80;;;-0.40;1.00;;;;;;8336210;28;20205;-64
2022/03/07 07:12:12;;;;;;;6.47;4.70;;;-0.30;99.90;;;;;;8354068;28;20201;-66
2022/03/07 07:16:13;;;;;;;9.90;5.23;;;-0.20;24.00;;;;;;8354233;28;20216;-65
2022/03/07 07:20:15;;;;;;;8.27;4.60;;;-0.10;1.00;;;;;;8325201;28;20223;-66
2022/03/07 07:24:15;;;;;;;11.00;5.73;;;0.00;16.10;;;;;;8350990;28;20283;-64
2022/03/07 07:28:16;;;;;;;9.33;6.17;;;0.10;1.00;;;;;;8335065;28;20202;-65
2022/03/07 07:32:17;;;;;;;10.17;5.90;;;0.10;99.90;;;;;;8325385;28;20322;-65
2022/03/07 07:36:18;;;;;;;8.73;6.47;;;0.30;99.90;;;;;;8331817;28;20215;-64
2022/03/07 07:40:19;;;;;;;11.20;6.33;;;0.40;99.90;;;;;;8350466;28;20197;-65
2022/03/07 07:44:20;;;;;;;11.10;6.00;;;0.50;99.90;;;;;;8335045;28;20229;-64
2022/03/07 07:48:52;;;;;;;9.47;5.80;;;0.60;99.90;;;;;;8325247;28;20231;-65
2022/03/07 07:52:54;;;;;;;8.30;5.23;;;0.70;99.90;;;;;;8348320;28;20214;-66
2022/03/07 07:56:55;;;;;;;9.80;6.13;;;0.90;46.50;;;;;;8330557;28;20200;-67
2022/03/07 08:00:56;;;;;;;9.73;6.20;;;1.10;99.90;;;;;;8347531;28;20253;-67
2022/03/07 08:04:57;;;;;;;10.10;5.97;;;1.00;1.00;;;;;;8330173;28;20261;-68
2022/03/07 08:08:58;;;;;;;9.23;6.40;;;1.10;99.90;;;;;;8328646;28;20227;-64
2022/03/07 08:12:59;;;;;;;9.83;5.73;;;1.30;1.00;;;;;;8343164;28;20232;-66
2022/03/07 08:16:59;;;;;;;9.10;5.90;;;1.40;1.00;;;;;;8352215;28;20284;-67
2022/03/07 08:21:00;;;;;;;10.97;6.97;;;1.70;99.90;;;;;;8346303;28;20227;-64
2022/03/07 08:25:02;;;;;;;9.77;6.50;;;1.70;1.00;;;;;;8348843;28;20217;-66
2022/03/07 08:29:02;;;;;;;11.13;6.03;;;1.90;99.90;;;;;;8332305;28;20231;-66
2022/03/07 08:33:03;;;;;;;9.00;6.07;;;2.00;1.00;;;;;;8349270;28;20236;-68
2022/03/07 08:37:04;;;;;;;8.47;5.70;;;2.30;1.00;;;;;;8334437;28;20205;-67
2022/03/07 08:41:05;;;;;;;12.10;6.13;;;2.50;99.90;;;;;;8346157;28;20259;-65
2022/03/07 08:45:07;;;;;;;9.23;5.63;;;2.60;99.90;;;;;;8333413;28;20217;-66
2022/03/07 08:49:08;;;;;;;6.10;5.40;;;2.90;99.90;;;;;;8336682;28;20285;-67
2022/03/07 08:53:09;;;;;;;9.00;5.43;;;2.80;99.90;;;;;;8346970;28;20213;-66
2022/03/07 08:57:11;;;;;;;9.23;6.53;;;2.90;99.90;;;;;;8333067;28;20216;-65
2022/03/07 09:01:11;;;;;;;8.60;5.83;;;3.20;54.10;;;;;;8332516;28;20223;-66
2022/03/07 09:05:12;;;;;;;9.23;5.80;;;3.10;68.20;;;;;;8332687;28;20221;-68
2022/03/07 09:09:13;;;;;;;9.23;6.20;;;3.00;99.90;;;;;;8322722;28;20206;-66
2022/03/07 09:13:14;;;;;;;7.37;5.30;;;2.90;99.90;;;;;;8327938;28;20213;-66
2022/03/07 09:17:15;;;;;;;10.33;6.10;;;3.00;99.90;;;;;;8329040;28;20236;-67
2022/03/07 09:21:15;;;;;;;8.77;6.13;;;3.20;99.90;;;;;;8349063;28;20222;-68
2022/03/07 09:25:16;;;;;;;8.37;5.57;;;3.40;34.90;;;;;;8331546;28;20241;-66
2022/03/07 09:29:18;;;;;;;7.87;5.73;;;3.80;1.00;;;;;;8324505;28;20212;-66
2022/03/07 09:33:19;;;;;;;10.87;5.70;;;4.10;1.00;;;;;;8329690;28;20300;-68
2022/03/07 09:37:20;;;;;;;9.83;5.93;;;4.30;1.00;;;;;;8325945;28;20249;-65
2022/03/07 09:41:21;;;;;;;8.50;5.37;;;4.90;99.90;;;;;;8325504;28;20261;-69
2022/03/07 09:45:22;;;;;;;11.03;5.63;;;4.80;99.90;;;;;;8339563;28;20237;-66
2022/03/07 09:49:24;;;;;;;7.07;5.10;;;4.90;99.90;;;;;;8349760;28;20201;-67
2022/03/07 09:53:24;;;;;;;11.63;6.30;;;4.40;99.90;;;;;;8327264;28;20699;-66
2022/03/07 09:57:25;;;;;;;6.70;5.23;;;4.60;1.00;;;;;;8319795;28;20213;-66
2022/03/07 10:01:26;;;;;;;7.13;4.57;;;4.70;99.90;;;;;;8348638;28;20217;-68
2022/03/07 10:05:34;;;;;;;9.07;5.17;;;4.50;99.90;;;;;;8343540;28;20243;-67
2022/03/07 10:09:35;;;;;;;9.23;4.90;;;4.40;1.00;;;;;;8326334;28;20210;-65
2022/03/07 10:13:36;;;;;;;8.03;5.87;;;4.50;1.00;;;;;;8327924;28;20226;-66
2022/03/07 10:17:40;;;;;;;7.47;4.83;;;4.60;1.00;;;;;;8337947;28;20570;-67
2022/03/07 10:21:50;;;;;;;10.00;5.60;;;4.90;99.90;;;;;;8314544;28;20234;-64
2022/03/07 10:25:51;;;;;;;10.80;5.30;;;4.90;1.00;;;;;;8333218;28;20203;-65
2022/03/07 10:29:52;;;;;;;6.97;4.67;;;5.10;99.90;;;;;;8330334;28;20557;-66
2022/03/07 10:34:08;;;;;;;9.40;4.97;;;4.60;99.90;;;;;;8332586;28;20307;-63
2022/03/07 10:38:14;;;;;;;10.27;6.20;;;4.20;1.00;;;;;;8349574;28;20202;-66
2022/03/07 10:42:20;;;;;;;9.07;5.10;;;4.00;1.00;;;;;;8349103;28;20221;-66
2022/03/07 10:46:26;;;;;;;6.37;3.93;;;4.30;1.00;;;;;;8349981;28;20197;-66
2022/03/07 10:50:28;;;;;;;5.50;4.47;;;4.50;99.90;;;;;;8330680;28;20310;-67
2022/03/07 10:54:34;;;;;;;10.47;4.33;;;4.70;99.90;;;;;;8332852;28;20205;-64
2022/03/07 10:58:45;;;;;;;7.57;4.47;;;4.90;99.90;;;;;;8330124;28;20217;-65
2022/03/07 11:02:48;;;;;;;8.13;3.93;;;5.10;99.90;;;;;;8343590;28;20214;-65
2022/03/07 11:06:49;;;;;;;6.37;3.60;;;5.50;3.70;;;;;;8326334;28;20196;-64
2022/03/07 11:10:52;;;;;;;4.97;3.53;;;5.40;1.00;;;;;;8347030;28;20204;-64
2022/03/07 11:14:56;;;;;;;5.03;3.27;;;6.00;1.00;;;;;;8349549;28;20208;-67
2022/03/07 11:18:58;;;;;;;4.57;3.23;;;6.10;1.00;;;;;;8328088;28;20233;-65
2022/03/07 11:22:59;;;;;;;7.53;4.60;;;5.90;1.00;;;;;;8330653;28;20218;-65
2022/03/07 11:27:00;;;;;;;5.37;3.40;;;6.10;1.00;;;;;;8328564;28;20254;-64
2022/03/07 11:31:01;;;;;;;5.80;3.20;;;5.70;1.00;;;;;;8332412;28;20244;-65
2022/03/07 11:35:02;;;;;;;3.67;2.30;;;5.60;1.00;;;;;;8329677;28;20209;-64
2022/03/07 11:39:06;;;;;;;5.00;2.43;;;5.40;99.90;;;;;;8352387;28;20269;-65
2022/03/07 11:43:07;;;;;;;4.50;2.40;;;5.30;99.90;;;;;;8335830;28;20232;-66
2022/03/07 11:47:12;;;;;;;4.37;2.73;;;5.90;99.90;;;;;;8353441;28;20204;-63
2022/03/07 11:51:18;;;;;;;3.83;2.93;;;6.60;99.90;;;;;;8326878;28;20267;-64
2022/03/07 11:55:21;;;;;;;5.30;2.93;;;6.80;99.90;;;;;;8334362;28;20218;-64
2022/03/07 11:59:29;;;;;;;4.03;2.23;;;6.80;99.90;;;;;;8332224;28;20641;-65
2022/03/07 12:03:33;;;;;;;5.30;2.47;;;6.70;99.90;;;;;;8330365;28;20222;-65
2022/03/07 12:07:34;;;;;;;6.70;2.67;;;6.30;99.90;;;;;;8347854;28;20197;-66
2022/03/07 12:11:36;;;;;;;3.50;1.93;;;6.30;99.90;;;;;;8352642;28;20194;-66
2022/03/07 12:15:49;;;;;;;4.63;2.00;;;6.00;99.90;;;;;;8329915;28;20203;-65
2022/03/07 12:19:58;;;;;;;4.37;2.10;;;5.70;99.90;;;;;;8349828;28;20204;-67
2022/03/07 12:23:59;;;;;;;2.87;2.40;;;6.00;99.90;;;;;;8333475;28;20283;-67
2022/03/07 12:28:00;;;;;;;4.87;2.50;;;6.20;99.90;;;;;;8338292;28;20224;-65
2022/03/07 12:32:05;;;;;;;4.00;2.30;;;6.10;99.90;;;;;;8352062;28;20291;-66
2022/03/07 12:36:09;;;;;;;4.20;2.03;;;6.10;99.90;;;;;;8335316;28;20202;-66
2022/03/07 12:40:11;;;;;;;3.07;1.87;;;5.80;99.90;;;;;;8351448;28;20194;-67
2022/03/07 12:44:12;;;;;;;4.80;2.63;;;6.00;99.90;;;;;;8335256;28;20222;-64
2022/03/07 12:48:13;;;;;;;4.73;2.27;;;6.70;99.90;;;;;;8351388;28;20213;-66
2022/03/07 12:52:49;;;;;;;6.43;3.13;;;7.30;99.90;;;;;;8351934;28;20209;-66
2022/03/07 12:56:50;;;;;;;4.60;1.90;;;7.30;99.90;;;;;;8330950;28;20217;-65
2022/03/07 13:00:55;;;;;;;3.53;1.80;;;6.80;84.10;;;;;;8348150;28;20216;-67
2022/03/07 13:04:56;;;;;;;1.93;1.30;;;6.30;99.90;;;;;;8331379;28;20237;-67
2022/03/07 13:08:58;;;;;;;2.60;1.53;;;6.40;99.90;;;;;;8321950;28;20198;-65
2022/03/07 13:13:04;;;;;;;1.70;1.60;;;6.50;99.90;;;;;;8332011;28;20206;-65
2022/03/07 13:17:18;;;;;;;3.80;2.40;;;6.60;99.90;;;;;;8337478;28;20205;-66
2022/03/07 13:21:19;;;;;;;3.57;2.07;;;7.00;98.40;;;;;;8331420;28;20218;-66
2022/03/07 13:25:20;;;;;;;4.10;1.90;;;7.30;69.30;;;;;;8330618;28;20217;-67
2022/03/07 13:29:22;;;;;;;6.33;3.90;;;7.40;86.20;;;;;;8324661;28;20213;-66
2022/03/07 13:33:33;;;;;;;5.20;2.87;;;7.50;52.20;;;;;;8344802;28;20210;-65
2022/03/07 13:37:43;;;;;;;5.17;3.20;;;7.20;61.70;;;;;;8317543;28;20303;-66
2022/03/07 13:41:49;;;;;;;4.80;3.23;;;7.10;94.00;;;;;;8349948;28;20225;-67
2022/03/07 13:45:50;;;;;;;5.93;3.60;;;7.30;85.00;;;;;;8330723;28;20236;-66
2022/03/07 13:49:54;;;;;;;4.43;2.37;;;7.50;60.00;;;;;;8349230;28;20201;-65
2022/03/07 13:53:59;;;;;;;2.77;2.00;;;7.60;42.50;;;;;;8351499;28;20201;-65
2022/03/07 13:58:00;;;;;;;4.37;2.33;;;7.40;72.80;;;;;;8332080;28;20212;-66
2022/03/07 14:02:16;;;;;;;11.87;6.43;;;7.30;67.10;;;;;;8329060;28;20225;-65
2022/03/07 14:06:19;;;;;;;6.30;3.67;;;7.70;49.00;;;;;;8330769;28;20210;-65
2022/03/07 14:10:20;;;;;;;7.23;3.87;;;7.90;28.60;;;;;;8323821;28;20228;-66
2022/03/07 14:14:21;;;;;;;6.57;3.60;;;8.20;9.40;;;;;;8331024;28;20213;-65
2022/03/07 14:18:22;;;;;;;9.60;4.80;;;8.20;3.80;;;;;;8337049;28;20205;-68
2022/03/07 14:22:24;;;;;;;5.97;3.43;;;8.20;8.00;;;;;;8346046;28;20233;-65
2022/03/07 14:26:25;;;;;;;3.47;2.27;;;7.90;25.30;;;;;;8349597;28;20213;-67
2022/03/07 14:30:28;;;;;;;4.47;2.10;;;7.60;23.70;;;;;;8347460;28;20201;-66
2022/03/07 14:34:28;;;;;;;4.23;1.40;;;7.40;24.10;;;;;;8343023;28;20270;-66
2022/03/07 14:38:29;;;;;;;12.30;5.67;;;7.50;36.90;;;;;;8344869;28;20210;-65
2022/03/07 14:42:30;;;;;;;13.10;7.10;;;7.80;33.60;;;;;;8346211;28;20229;-65
2022/03/07 14:46:36;;;;;;;7.57;4.57;;;8.10;36.90;;;;;;8346402;28;20263;-66
2022/03/07 14:50:37;;;;;;;14.43;6.67;;;8.20;28.00;;;;;;8326224;28;20214;-65
2022/03/07 14:54:38;;;;;;;10.17;5.00;;;8.00;25.10;;;;;;8350017;28;20214;-65
2022/03/07 14:58:39;;;;;;;12.43;5.17;;;7.60;34.20;;;;;;8333255;28;20285;-65
2022/03/07 15:02:40;;;;;;;16.93;9.07;;;7.40;47.90;;;;;;8335508;28;20217;-64
2022/03/07 15:06:41;;;;;;;8.33;4.90;;;7.30;64.90;;;;;;8351972;28;20288;-67
2022/03/07 15:10:42;;;;;;;19.37;9.57;;;7.40;62.80;;;;;;8348248;28;20281;-66
2022/03/07 15:14:50;;;;;;;13.20;7.57;;;7.30;77.60;;;;;;8333752;28;20260;-65
2022/03/07 15:18:51;;;;;;;10.40;5.20;;;7.10;95.60;;;;;;8332254;28;20217;-66
2022/03/07 15:22:52;;;;;;;13.80;7.37;;;7.10;99.90;;;;;;8324450;28;20288;-66
2022/03/07 15:26:52;;;;;;;17.00;7.97;;;7.00;98.70;;;;;;8346326;28;20212;-65
2022/03/07 15:30:55;;;;;;;19.53;10.17;;;7.00;99.90;;;;;;8347662;28;20218;-66
2022/03/07 15:34:56;;;;;;;19.57;10.73;;;7.00;99.90;;;;;;8349396;28;20313;-66
2022/03/07 15:38:57;;;;;;;34.53;15.53;;;6.90;99.90;;;;;;8341194;28;20627;-66
2022/03/07 15:42:58;;;;;;;48.00;24.10;;;6.80;99.90;;;;;;8329457;28;20240;-66
2022/03/07 15:46:59;;;;;;;38.50;18.17;;;6.70;99.90;;;;;;8332661;28;20201;-65
2022/03/07 15:51:01;;;;;;;100.97;47.20;;;6.60;99.90;;;;;;8322278;28;20205;-66
2022/03/07 15:55:07;;;;;;;20.23;10.60;;;6.50;99.90;;;;;;8352149;28;20210;-66
2022/03/07 15:59:08;;;;;;;46.87;22.63;;;6.40;99.90;;;;;;8332273;28;20287;-66
2022/03/07 16:03:09;;;;;;;48.97;24.67;;;6.50;99.90;;;;;;8345182;28;20245;-66
2022/03/07 16:07:11;;;;;;;49.83;25.13;;;6.60;99.90;;;;;;8329849;28;20210;-66
2022/03/07 16:11:12;;;;;;;9.37;5.90;;;6.60;99.90;;;;;;8345878;28;20201;-67
2022/03/07 16:15:13;;;;;;;10.57;5.20;;;6.50;99.90;;;;;;8321421;28;20201;-67
2022/03/07 16:19:14;;;;;;;11.70;6.40;;;6.30;99.90;;;;;;8330357;28;20197;-67
2022/03/07 16:23:19;;;;;;;13.73;6.30;;;6.20;99.90;;;;;;8350589;28;20225;-66
2022/03/07 16:27:19;;;;;;;21.67;13.33;;;6.10;99.90;;;;;;8344564;28;20202;-66
2022/03/07 16:31:20;;;;;;;43.37;22.20;;;6.00;99.90;;;;;;8322545;28;20210;-66
2022/03/07 16:35:21;;;;;;;25.60;14.90;;;5.90;99.90;;;;;;8348924;28;20204;-67
2022/03/07 16:39:22;;;;;;;13.90;7.40;;;5.70;99.90;;;;;;8327499;28;20206;-67
2022/03/07 16:43:23;;;;;;;32.80;17.73;;;5.50;99.90;;;;;;8345355;28;20232;-67
2022/03/07 16:47:24;;;;;;;23.87;11.63;;;5.40;99.90;;;;;;8342056;28;20284;-67
2022/03/07 16:51:25;;;;;;;20.97;9.87;;;5.30;99.90;;;;;;8337842;28;20217;-67
2022/03/07 16:55:25;;;;;;;18.20;8.17;;;5.10;99.90;;;;;;8338403;28;20195;-67
2022/03/07 16:59:26;;;;;;;13.40;7.17;;;5.00;99.90;;;;;;8332203;28;20222;-67
2022/03/07 17:03:27;;;;;;;15.50;7.17;;;4.80;99.90;;;;;;8348334;28;20229;-67
2022/03/07 17:07:28;;;;;;;13.47;6.33;;;4.50;1.00;;;;;;8318830;28;20226;-69
2022/03/07 17:11:29;;;;;;;13.00;6.17;;;4.30;1.00;;;;;;8348813;28;20212;-68
2022/03/07 17:15:29;;;;;;;9.30;5.50;;;4.00;1.00;;;;;;8322445;28;20315;-65
2022/03/07 17:19:31;;;;;;;7.93;4.67;;;3.60;89.60;;;;;;8330782;28;20218;-65
2022/03/07 17:23:32;;;;;;;8.53;4.43;;;3.20;99.90;;;;;;8346237;28;20249;-66
2022/03/07 17:27:36;;;;;;;8.53;4.50;;;2.80;99.90;;;;;;8325719;28;20264;-65
2022/03/07 17:31:37;;;;;;;7.70;4.17;;;2.50;99.90;;;;;;8324032;28;20240;-65
2022/03/07 17:35:38;;;;;;;8.53;3.30;;;2.10;99.90;;;;;;8331277;28;20208;-66
2022/03/07 17:39:39;;;;;;;6.60;3.43;;;1.80;1.00;;;;;;8331124;28;20646;-65
2022/03/07 17:43:39;;;;;;;9.20;4.27;;;1.50;1.00;;;;;;8331373;28;20221;-65
2022/03/07 17:47:41;;;;;;;9.73;4.20;;;1.30;1.00;;;;;;8331931;28;20210;-66
2022/03/07 17:51:41;;;;;;;9.50;4.00;;;1.00;35.80;;;;;;8331460;28;20227;-65
2022/03/07 17:55:43;;;;;;;6.83;3.67;;;0.80;99.90;;;;;;8348929;28;20201;-65
2022/03/07 17:59:44;;;;;;;10.93;4.23;;;0.70;99.90;;;;;;8345991;28;20219;-63
2022/03/07 18:03:48;;;;;;;8.53;4.20;;;0.50;99.90;;;;;;8330534;28;20220;-65
2022/03/07 18:07:48;;;;;;;8.77;4.07;;;0.30;99.90;;;;;;8346896;28;20209;-64
2022/03/07 18:11:49;;;;;;;9.90;4.43;;;0.20;99.90;;;;;;8347114;28;20213;-63
2022/03/07 18:15:50;;;;;;;8.47;3.70;;;0.00;1.00;;;;;;8323724;28;20208;-65
2022/03/07 18:19:51;;;;;;;9.20;3.97;;;-0.10;1.00;;;;;;8354316;28;20231;-64
2022/03/07 18:23:52;;;;;;;7.87;3.90;;;-0.30;1.00;;;;;;8354159;28;20308;-64
2022/03/07 18:27:53;;;;;;;8.00;3.80;;;-0.40;54.60;;;;;;8353959;28;20204;-65
2022/03/07 18:31:54;;;;;;;9.13;4.13;;;-0.50;99.90;;;;;;8352854;28;20200;-63
2022/03/07 18:35:55;;;;;;;8.60;3.77;;;-0.60;99.90;;;;;;8353462;28;20198;-66
2022/03/07 18:39:56;;;;;;;7.83;3.47;;;-0.80;99.90;;;;;;8353389;28;20193;-65
2022/03/07 18:43:57;;;;;;;6.07;3.17;;;-0.90;99.90;;;;;;8354047;28;20403;-63
2022/03/07 18:47:58;;;;;;;8.60;3.30;;;-1.00;1.00;;;;;;8352630;28;20198;-63
2022/03/07 18:52:00;;;;;;;5.77;2.70;;;-1.20;2.20;;;;;;8353363;28;20194;-64
2022/03/07 18:56:01;;;;;;;6.80;3.20;;;-1.20;99.90;;;;;;8336064;28;20198;-64
2022/03/07 19:00:05;;;;;;;6.30;2.90;;;-1.30;99.90;;;;;;8334823;28;20247;-66
2022/03/07 19:04:06;;;;;;;5.07;2.77;;;-1.40;1.00;;;;;;8347335;28;20229;-63
2022/03/07 19:08:07;;;;;;;4.77;2.40;;;-1.50;1.00;;;;;;8326450;28;20201;-64
2022/03/07 19:12:08;;;;;;;7.53;2.97;;;-1.50;20.90;;;;;;8329951;28;20231;-63
2022/03/07 19:16:10;;;;;;;7.70;2.73;;;-1.60;99.90;;;;;;8332720;28;20240;-64
2022/03/07 19:20:14;;;;;;;5.43;2.23;;;-1.60;99.90;;;;;;8322604;28;20243;-64
2022/03/07 19:24:15;;;;;;;6.83;2.50;;;-1.60;1.00;;;;;;8342070;28;20222;-64
2022/03/07 19:28:16;;;;;;;5.47;2.10;;;-1.60;1.00;;;;;;8347901;28;20251;-65
2022/03/07 19:32:17;;;;;;;6.83;2.63;;;-1.70;74.20;;;;;;8327655;28;20231;-64
2022/03/07 19:36:18;;;;;;;5.93;2.30;;;-1.80;99.90;;;;;;8352243;28;20220;-64
2022/03/07 19:40:19;;;;;;;6.23;3.17;;;-1.90;99.90;;;;;;8352538;28;20198;-65
2022/03/07 19:44:19;;;;;;;6.97;3.80;;;-2.00;1.00;;;;;;8352525;28;20292;-64
2022/03/07 19:48:20;;;;;;;8.10;2.73;;;-2.00;94.30;;;;;;8351633;28;20205;-64
2022/03/07 19:52:25;;;;;;;4.70;2.83;;;-2.10;99.90;;;;;;8333262;28;20224;-64
2022/03/07 19:56:26;;;;;;;6.77;3.00;;;-2.10;99.90;;;;;;8334070;28;20201;-66
2022/03/07 20:00:27;;;;;;;5.40;2.67;;;-2.10;99.90;;;;;;8349425;28;20209;-64
2022/03/07 20:04:28;;;;;;;6.03;2.57;;;-2.20;99.90;;;;;;8327511;28;20709;-64
2022/03/07 20:08:29;;;;;;;6.03;3.30;;;-2.20;99.90;;;;;;8347510;28;20210;-64
2022/03/07 20:12:30;;;;;;;6.37;2.90;;;-2.30;99.90;;;;;;8332984;28;20205;-64
2022/03/07 20:16:35;;;;;;;13.23;5.63;;;-2.40;1.00;;;;;;8333098;28;20220;-64
2022/03/07 20:20:36;;;;;;;27.80;12.07;;;-2.50;99.90;;;;;;8344096;28;20202;-63
2022/03/07 20:24:37;;;;;;;17.03;6.73;;;-2.50;99.90;;;;;;8332349;28;20225;-62
2022/03/07 20:28:38;;;;;;;10.77;4.30;;;-2.60;1.00;;;;;;8349075;28;20205;-65
2022/03/07 20:32:39;;;;;;;10.77;4.33;;;-2.60;99.90;;;;;;8346600;28;20259;-64
2022/03/07 20:36:40;;;;;;;15.10;5.43;;;-2.70;99.90;;;;;;8330502;28;20604;-63
2022/03/07 20:40:41;;;;;;;13.80;5.47;;;-2.80;1.00;;;;;;8331113;28;20215;-65
2022/03/07 20:44:42;;;;;;;11.57;4.93;;;-2.80;40.30;;;;;;8330624;28;20257;-64
2022/03/07 20:48:43;;;;;;;12.60;5.33;;;-2.90;99.90;;;;;;8324388;28;20292;-63
2022/03/07 20:52:44;;;;;;;13.00;4.97;;;-2.90;99.90;;;;;;8331196;28;20224;-66
2022/03/07 20:56:45;;;;;;;13.53;4.50;;;-3.00;1.00;;;;;;8349093;28;20213;-64
2022/03/07 21:00:46;;;;;;;11.93;4.80;;;-3.10;99.90;;;;;;8343187;28;20262;-64
2022/03/07 21:04:47;;;;;;;12.10;3.97;;;-3.10;1.00;;;;;;8325807;28;20221;-63